CST,Max TemperatureF,Mean TemperatureF,Min TemperatureF,Max Dew PointF,MeanDew PointF,Min DewpointF,Max Humidity, Mean Humidity, Min Humidity, Max Sea Level PressureIn, Mean Sea Level PressureIn, Min Sea Level PressureIn, Max VisibilityMiles, Mean VisibilityMiles, Min VisibilityMiles, Max Wind SpeedMPH, Mean Wind SpeedMPH, Max Gust SpeedMPH,PrecipitationIn, CloudCover, Events, WindDirDegrees
2014-1-1,45,38,31,32,31,28,97,75,56,30.21,30.11,30.00,10,10,2,14,8,20,0.00,3,Rain-Snow,200
2014-1-2,30,20,10,30,15,6,96,84,76,30.46,30.22,29.98,10,7,2,23,14,30,0.00,6,Snow,327
2014-1-3,27,15,3,16,10,0,89,75,58,30.52,30.36,30.09,10,10,5,18,6,24,0.00,0,,176
2014-1-4,41,33,25,34,23,15,100,64,55,30.08,30.01,29.96,10,9,3,22,14,29,0.00,4,Rain-Snow,193
2014-1-5,34,19,3,35,22,-4,100,92,71,30.26,29.93,29.72,7,2,0,24,7,38,0.28,7,Rain-Snow,337
2014-1-6,3,-4,-10,-4,-14,-17,74,65,58,30.49,30.42,30.26,10,9,2,20,11,32,0.00,1,Snow,279
2014-1-7,19,4,-11,13,-2,-17,84,72,60,30.48,30.37,30.26,10,10,10,14,7,17,0.00,2,,177
2014-1-8,31,24,18,24,19,13,82,75,68,30.46,30.38,30.28,10,10,10,9,6,,0.00,4,,179
2014-1-9,34,28,21,34,27,16,100,91,77,30.45,30.33,30.19,10,6,2,9,5,,0.00,8,Rain-Snow,125
2014-1-10,46,40,34,46,40,33,100,96,88,30.18,29.91,29.60,10,7,1,15,7,21,0.15,8,Rain-Thunderstorm,154
2014-1-11,45,40,35,46,37,32,100,88,72,29.91,29.71,29.54,10,8,0,17,11,23,0.00,5,Fog-Rain,250
2014-1-12,52,41,30,36,33,30,96,72,51,30.01,29.88,29.74,10,10,7,22,9,31,0.00,0,,184
2014-1-13,53,44,33,45,38,32,93,69,57,29.88,29.75,29.66,10,10,10,24,14,30,0.00,2,,239
2014-1-14,44,36,29,37,30,17,100,78,56,30.06,29.90,29.80,10,9,3,20,7,28,0.00,3,Rain,266
2014-1-15,31,26,21,22,18,16,83,70,61,30.19,30.11,30.02,10,10,10,18,10,23,0.00,5,Snow,279
2014-1-16,42,34,26,34,27,19,92,77,62,29.99,29.81,29.70,10,8,1,21,12,30,0.00,7,Snow,216
2014-1-17,33,24,15,28,13,6,84,73,63,30.11,30.01,29.80,10,9,1,23,15,30,0.00,7,Snow,283
2014-1-18,39,27,15,36,22,12,96,77,51,30.07,29.86,29.69,10,9,2,29,9,41,0.00,6,Rain-Snow,212
2014-1-19,44,34,24,30,26,20,87,72,55,30.05,29.93,29.77,10,10,10,24,15,32,0.00,3,,235
2014-1-20,45,40,35,36,32,28,87,73,54,29.95,29.89,29.77,10,10,10,16,8,20,0.00,2,Rain-Snow,307
2014-1-21,37,23,9,33,11,4,92,77,61,30.32,30.19,29.85,10,8,1,32,13,41,0.00,4,Rain-Snow,334
2014-1-22,28,19,10,19,12,3,81,72,58,30.27,30.12,30.02,10,10,10,25,7,30,0.00,7,Snow,240
2014-1-23,14,8,3,5,-1,-4,79,66,56,30.71,30.60,30.30,10,10,10,24,14,31,0.00,0,,302
2014-1-24,30,17,4,10,5,0,84,58,42,30.70,30.29,29.79,10,10,10,29,11,39,0.00,1,,203
2014-1-25,43,32,21,29,14,5,66,47,26,29.99,29.81,29.65,10,10,10,30,17,44,0.00,4,,274
2014-1-26,56,40,25,36,23,7,75,51,38,29.96,29.69,29.57,10,10,10,34,11,52,0.00,3,,236
2014-1-27,24,14,5,12,-2,-5,70,51,41,30.50,30.32,29.98,10,10,10,30,19,41,0.00,1,,331
2014-1-28,17,10,3,3,-4,-7,77,58,37,30.53,30.45,30.38,10,10,10,12,5,,0.00,0,,306
2014-1-29,32,20,7,9,5,-1,71,52,34,30.38,30.30,30.18,10,10,10,16,8,22,0.00,0,,197
2014-1-30,42,32,22,18,12,9,57,44,30,30.17,29.99,29.84,10,10,10,31,15,39,0.00,1,,187
2014-1-31,38,35,32,34,25,18,100,70,45,30.12,30.04,29.96,10,8,1,9,5,,0.00,7,,55